Time;durP1;ratioP1;P1;durP2;ratioP2;P2;SDS_P1;SDS_P2;PMS_P1;PMS_P2;Temp;Humidity;BMP_temperature;BMP_pressure;BME280_temperature;BME280_humidity;BME280_pressure;Samples;Min_cycle;Max_cycle;Signal;HPM_P1;HPM_P2
2022/01/02 00:00:04;;;;;;;11.88;7.47;;;;;;;9.02;100.00;101113.31;4958154;28;20058;-88
2022/01/02 00:02:34;;;;;;;10.88;8.02;;;;;;;9.00;100.00;101115.91;4962236;28;20602;-86
2022/01/02 00:05:11;;;;;;;12.32;7.78;;;;;;;8.98;100.00;101117.63;4962678;28;20070;-85
2022/01/02 00:07:57;;;;;;;10.73;7.65;;;;;;;8.98;100.00;101109.81;4972816;28;20402;-85
2022/01/02 00:10:25;;;;;;;13.40;8.27;;;;;;;8.97;100.00;101117.63;4976495;28;20856;-85
2022/01/02 00:12:59;;;;;;;9.93;8.43;;;;;;;8.96;100.00;101108.03;4965561;28;20064;-87
2022/01/02 00:15:27;;;;;;;10.52;7.28;;;;;;;8.93;100.00;101116.75;4956624;28;20055;-86
2022/01/02 00:17:57;;;;;;;7.78;6.97;;;;;;;8.89;100.00;101133.25;4953336;28;20051;-85
2022/01/02 00:20:32;;;;;;;9.20;7.05;;;;;;;8.83;100.00;101121.03;4941266;28;20062;-86
2022/01/02 00:23:05;;;;;;;9.73;6.63;;;;;;;8.75;100.00;101125.38;4953348;28;20055;-85
2022/01/02 00:25:39;;;;;;;9.00;7.07;;;;;;;8.68;100.00;101134.00;4944888;28;20042;-85
2022/01/02 00:28:07;;;;;;;13.00;6.32;;;;;;;8.60;100.00;101127.00;4951013;28;20158;-87
2022/01/02 00:30:34;;;;;;;10.25;7.72;;;;;;;8.56;100.00;101135.66;4948990;28;20054;-85
2022/01/02 00:33:02;;;;;;;10.48;7.82;;;;;;;8.54;100.00;101126.97;4958023;28;20150;-85
2022/01/02 00:35:30;;;;;;;11.93;7.55;;;;;;;8.61;100.00;101120.03;4956739;28;20046;-85
2022/01/02 00:37:58;;;;;;;8.60;6.20;;;;;;;8.64;100.00;101107.00;4960523;28;20133;-85
2022/01/02 00:40:24;;;;;;;9.25;6.03;;;;;;;8.71;100.00;101105.34;4962572;28;20059;-85
2022/01/02 00:43:03;;;;;;;13.48;6.82;;;;;;;8.77;100.00;101097.50;4946914;28;20050;-86
2022/01/02 00:45:44;;;;;;;8.80;5.55;;;;;;;8.85;100.00;101100.16;4961604;28;20121;-86
2022/01/02 00:48:30;;;;;;;8.93;5.43;;;;;;;8.91;100.00;101081.94;4962420;28;20042;-85
2022/01/02 00:51:22;;;;;;;7.57;5.25;;;;;;;9.01;100.00;101070.66;4976887;28;20057;-85
2022/01/02 00:53:49;;;;;;;6.82;4.88;;;;;;;9.12;100.00;101085.50;4961601;28;20050;-85
2022/01/02 00:56:19;;;;;;;7.05;4.75;;;;;;;9.21;100.00;101085.53;4955735;28;20134;-85
2022/01/02 00:58:59;;;;;;;7.53;5.85;;;;;;;9.31;100.00;101082.09;4958259;28;20097;-86
2022/01/02 01:01:33;;;;;;;6.85;4.93;;;;;;;9.39;100.00;101080.38;4951773;28;20074;-86
2022/01/02 01:04:02;;;;;;;6.97;4.45;;;;;;;9.50;100.00;101076.91;4970818;28;20054;-85
2022/01/02 01:06:33;;;;;;;7.00;4.00;;;;;;;9.58;99.07;101060.38;4936019;28;20041;-84
2022/01/02 01:09:05;;;;;;;7.45;3.72;;;;;;;9.68;99.17;101055.16;4957443;28;20074;-84
2022/01/02 01:11:32;;;;;;;6.68;3.47;;;;;;;9.78;97.99;101062.16;4938113;28;20055;-87
2022/01/02 01:14:00;;;;;;;6.43;4.03;;;;;;;9.84;97.77;101049.09;4939638;28;20063;-84
2022/01/02 01:16:27;;;;;;;5.25;3.75;;;;;;;9.88;97.62;101042.97;4939980;28;20034;-87
2022/01/02 01:18:54;;;;;;;7.50;4.55;;;;;;;9.94;96.91;101052.56;4962636;28;20141;-85
2022/01/02 01:21:21;;;;;;;4.18;3.60;;;;;;;9.98;97.11;101040.38;4962994;28;20039;-85
2022/01/02 01:23:48;;;;;;;7.18;4.88;;;;;;;10.01;96.61;101043.84;4946769;28;20051;-87
2022/01/02 01:26:17;;;;;;;6.28;4.43;;;;;;;10.04;96.57;101030.75;4948103;28;20038;-85
2022/01/02 01:28:43;;;;;;;5.40;3.88;;;;;;;10.07;96.35;101032.50;4944616;28;20083;-86
2022/01/02 01:31:10;;;;;;;7.65;4.20;;;;;;;10.11;95.94;101042.09;4960585;28;20064;-86
2022/01/02 01:33:36;;;;;;;8.00;4.07;;;;;;;10.12;96.17;101041.22;4945221;28;20320;-86
2022/01/02 01:36:03;;;;;;;5.05;3.67;;;;;;;10.15;95.69;101035.97;4949206;28;20050;-84
2022/01/02 01:38:29;;;;;;;4.20;3.40;;;;;;;10.15;95.99;101027.28;4963189;28;20051;-86
2022/01/02 01:41:12;;;;;;;8.68;4.95;;;;;;;10.16;95.63;101027.25;4966829;28;20566;-87
2022/01/02 01:43:53;;;;;;;5.63;3.80;;;;;;;10.17;95.82;101015.03;4965692;28;20614;-86
2022/01/02 01:46:20;;;;;;;6.45;3.28;;;;;;;10.18;95.26;101037.72;4946359;28;20530;-85
2022/01/02 01:48:55;;;;;;;11.38;4.28;;;;;;;10.19;95.31;101045.56;4957761;28;20046;-88
2022/01/02 01:51:25;;;;;;;5.95;4.18;;;;;;;10.21;95.08;101050.81;4938272;28;20148;-86
2022/01/02 01:53:52;;;;;;;3.65;3.35;;;;;;;10.22;94.89;101052.53;4957828;28;20058;-86
2022/01/02 01:56:19;;;;;;;5.80;4.25;;;;;;;10.20;95.16;101047.31;4922370;28;20153;-84
2022/01/02 01:58:46;;;;;;;8.07;4.20;;;;;;;10.20;95.59;101039.47;4956439;28;20050;-85
2022/01/02 02:01:12;;;;;;;6.43;4.30;;;;;;;10.19;95.12;101036.84;4938845;28;20046;-85
2022/01/02 02:03:39;;;;;;;4.18;3.50;;;;;;;10.17;95.68;101028.13;4941959;28;20046;-85
2022/01/02 02:06:05;;;;;;;4.90;3.50;;;;;;;10.18;95.34;101022.91;4955273;28;20054;-85
2022/01/02 02:08:32;;;;;;;5.25;4.03;;;;;;;10.18;95.05;101028.16;4957596;28;20054;-83
2022/01/02 02:10:58;;;;;;;4.47;3.60;;;;;;;10.19;95.11;101035.09;4964496;28;20458;-87
2022/01/02 02:13:26;;;;;;;7.82;3.50;;;;;;;10.22;94.92;101037.72;4939542;28;20059;-85
2022/01/02 02:15:53;;;;;;;5.60;3.53;;;;;;;10.25;94.53;101029.88;4941886;28;20518;-85
2022/01/02 02:18:19;;;;;;;4.55;3.47;;;;;;;10.29;94.22;101011.56;4937521;28;20133;-85
2022/01/02 02:20:46;;;;;;;4.22;3.20;;;;;;;10.30;93.95;101022.03;4956322;28;20051;-86
2022/01/02 02:23:15;;;;;;;5.65;3.28;;;;;;;10.33;93.69;101015.91;4951821;28;20105;-85
2022/01/02 02:25:43;;;;;;;4.15;3.08;;;;;;;10.33;93.81;101024.63;4949871;28;20121;-86
2022/01/02 02:28:16;;;;;;;5.53;3.70;;;;;;;10.31;93.74;101026.38;4983517;28;20707;-85
2022/01/02 02:30:46;;;;;;;5.80;3.15;;;;;;;10.32;93.97;101032.47;4941835;28;20054;-85
2022/01/02 02:33:15;;;;;;;5.60;3.78;;;;;;;10.28;93.73;101026.38;4960084;28;20065;-85
2022/01/02 02:35:46;;;;;;;5.18;3.60;;;;;;;10.23;94.43;101039.47;4960481;28;20051;-87
2022/01/02 02:38:15;;;;;;;5.35;3.58;;;;;;;10.21;94.47;101033.38;4959652;28;20038;-85
2022/01/02 02:40:42;;;;;;;8.32;3.70;;;;;;;10.19;94.65;101034.25;4941119;28;20059;-88
2022/01/02 02:43:26;;;;;;;5.57;3.42;;;;;;;10.17;94.76;101033.34;4941624;28;20054;-85
2022/01/02 02:51:31;;;;;;;3.33;2.67;;;;;;;10.21;94.57;101042.97;4959353;28;20047;-86
2022/01/02 02:53:58;;;;;;;5.97;3.13;;;;;;;10.22;94.30;101039.44;4954569;28;20065;-86
2022/01/02 02:56:27;;;;;;;9.65;3.80;;;;;;;10.21;94.70;101032.50;4954797;28;20057;-85
2022/01/02 02:58:57;;;;;;;4.60;3.72;;;;;;;10.22;94.63;101037.72;4956871;28;20051;-86
2022/01/02 03:01:29;;;;;;;6.03;3.33;;;;;;;10.27;94.03;101035.09;4937097;28;20047;-86
2022/01/02 03:03:56;;;;;;;5.22;3.20;;;;;;;10.34;93.84;101039.44;4956986;28;20042;-85
2022/01/02 03:06:23;;;;;;;5.55;4.28;;;;;;;10.40;93.68;101033.34;4953674;28;20051;-86
2022/01/02 03:08:51;;;;;;;5.22;3.90;;;;;;;10.46;92.92;101025.50;4941495;28;20046;-85
2022/01/02 03:11:21;;;;;;;5.82;3.38;;;;;;;10.53;93.17;101023.72;4935790;28;20081;-85
2022/01/02 03:13:51;;;;;;;3.25;3.00;;;;;;;10.55;92.72;101027.22;4955261;28;20302;-85
2022/01/02 03:16:18;;;;;;;7.18;2.90;;;;;;;10.55;93.04;101022.00;4935017;28;20052;-86
2022/01/02 03:18:45;;;;;;;5.72;3.50;;;;;;;10.55;92.78;101028.09;4973949;28;20053;-88
2022/01/02 03:21:12;;;;;;;6.20;3.47;;;;;;;10.56;93.01;101021.13;4971322;28;20057;-85
2022/01/02 03:23:39;;;;;;;4.82;3.75;;;;;;;10.55;93.34;101012.38;4973814;28;20078;-85
2022/01/02 03:26:07;;;;;;;5.88;3.92;;;;;;;10.54;93.96;101007.16;4960163;28;20078;-85
2022/01/02 03:28:35;;;;;;;3.25;2.53;;;;;;;10.51;93.88;101007.19;4955905;28;20133;-85
2022/01/02 03:31:02;;;;;;;5.57;3.67;;;;;;;10.48;94.39;100984.50;4960985;28;20125;-86
2022/01/02 03:33:28;;;;;;;6.65;3.45;;;;;;;10.45;94.25;100986.25;4960343;28;20051;-85
2022/01/02 03:35:55;;;;;;;6.03;3.13;;;;;;;10.41;94.88;100982.75;4961562;28;20051;-86
2022/01/02 03:38:22;;;;;;;5.38;3.97;;;;;;;10.39;94.94;100976.66;4957549;28;20514;-85
2022/01/02 03:40:48;;;;;;;4.88;3.67;;;;;;;10.37;95.19;100981.91;4953075;28;20047;-85
2022/01/02 03:43:15;;;;;;;7.72;3.75;;;;;;;10.36;95.14;100980.16;4955254;28;20054;-86
2022/01/02 03:45:42;;;;;;;3.80;3.30;;;;;;;10.37;95.25;100965.34;4973744;28;20050;-85
2022/01/02 03:48:08;;;;;;;5.35;3.40;;;;;;;10.35;95.16;100956.56;4943597;28;20103;-86
2022/01/02 03:50:35;;;;;;;5.30;3.95;;;;;;;10.32;95.34;100954.84;4956624;28;20042;-86
2022/01/02 03:53:01;;;;;;;3.85;3.08;;;;;;;10.30;95.82;100958.31;4952933;28;20061;-87
2022/01/02 03:55:28;;;;;;;3.60;3.30;;;;;;;10.29;95.47;100965.31;4939032;28;20046;-85
2022/01/02 03:57:54;;;;;;;5.55;3.53;;;;;;;10.30;95.76;100960.94;4962195;28;20046;-86
2022/01/02 04:00:21;;;;;;;4.32;2.70;;;;;;;10.30;95.73;100956.59;4958381;28;20054;-86
2022/01/02 04:02:48;;;;;;;4.03;3.60;;;;;;;10.34;95.39;100957.44;4944165;28;20153;-85
2022/01/02 04:05:16;;;;;;;4.03;2.63;;;;;;;10.38;95.27;100954.00;4956678;28;20046;-85
2022/01/02 04:07:44;;;;;;;4.50;3.00;;;;;;;10.40;95.07;100941.75;4960919;28;20150;-86
2022/01/02 04:10:18;;;;;;;4.20;3.35;;;;;;;10.41;94.74;100944.38;4951232;28;20046;-86
2022/01/02 04:12:45;;;;;;;6.20;3.20;;;;;;;10.46;94.06;100946.13;4955171;28;20062;-88
2022/01/02 04:15:14;;;;;;;4.53;2.90;;;;;;;10.56;93.24;100929.50;4945303;28;20043;-85
2022/01/02 04:17:42;;;;;;;5.95;3.05;;;;;;;10.64;92.52;100934.69;4956534;28;20419;-85
2022/01/02 04:20:14;;;;;;;5.63;3.80;;;;;;;10.69;92.14;100914.56;4959487;28;20446;-86
2022/01/02 04:22:42;;;;;;;6.43;3.17;;;;;;;10.69;91.91;100910.22;4939117;28;20276;-87
2022/01/02 04:25:09;;;;;;;5.30;3.13;;;;;;;10.70;92.11;100903.22;4957455;28;20055;-87
2022/01/02 04:27:36;;;;;;;7.30;2.60;;;;;;;10.71;92.39;100900.59;4955605;28;20514;-87
2022/01/02 04:30:10;;;;;;;5.32;3.75;;;;;;;10.73;92.40;100905.84;4944524;28;20059;-85
2022/01/02 04:32:37;;;;;;;5.53;4.03;;;;;;;10.75;91.80;100893.59;4955326;28;20047;-84
2022/01/02 04:35:04;;;;;;;4.53;3.35;;;;;;;10.76;91.92;100882.25;4956234;28;20051;-87
2022/01/02 04:37:32;;;;;;;4.03;3.25;;;;;;;10.74;91.91;100874.41;4937490;28;20071;-85
2022/01/02 04:39:58;;;;;;;3.90;2.70;;;;;;;10.72;92.59;100865.69;4971031;28;20465;-86
2022/01/02 04:42:25;;;;;;;4.68;2.85;;;;;;;10.71;92.63;100863.09;4937107;28;20141;-85
2022/01/02 04:44:51;;;;;;;9.93;4.45;;;;;;;10.70;92.76;100871.81;4957851;28;20132;-86
2022/01/02 04:47:18;;;;;;;3.50;3.20;;;;;;;10.72;92.92;100870.06;4962534;28;20038;-85
2022/01/02 04:49:44;;;;;;;6.60;2.97;;;;;;;10.72;93.07;100868.31;4953310;28;20049;-84
2022/01/02 04:52:11;;;;;;;5.97;3.22;;;;;;;10.72;92.84;100867.44;4958298;28;20050;-85
2022/01/02 04:54:37;;;;;;;5.40;3.22;;;;;;;10.69;93.22;100862.22;4954573;28;20612;-88
2022/01/02 04:57:04;;;;;;;6.63;3.05;;;;;;;10.68;93.67;100850.88;4956866;28;20044;-85
2022/01/02 04:59:31;;;;;;;5.75;2.70;;;;;;;10.68;93.78;100847.41;4984456;28;20185;-85
2022/01/02 05:01:58;;;;;;;10.98;4.00;;;;;;;10.65;94.06;100852.66;4956705;28;20514;-85
2022/01/02 05:04:24;;;;;;;4.40;2.35;;;;;;;10.63;94.36;100857.03;4938451;28;20059;-87
2022/01/02 05:06:51;;;;;;;5.03;2.70;;;;;;;10.62;94.50;100863.16;4956086;28;20161;-87
2022/01/02 05:09:17;;;;;;;3.88;2.70;;;;;;;10.59;94.99;100854.41;4959262;28;20042;-85
2022/01/02 05:11:44;;;;;;;6.30;3.15;;;;;;;10.56;95.50;100870.16;4954568;28;20521;-88
2022/01/02 05:14:10;;;;;;;4.97;2.60;;;;;;;10.54;95.74;100858.81;4958709;28;20051;-86
2022/01/02 05:16:37;;;;;;;7.47;3.70;;;;;;;10.51;96.26;100852.75;4951561;28;20046;-86
2022/01/02 05:19:03;;;;;;;5.47;2.92;;;;;;;10.50;96.86;100845.75;4956098;28;20043;-87
2022/01/02 05:21:30;;;;;;;6.05;3.88;;;;;;;10.45;98.03;100842.31;4934105;28;20050;-86
2022/01/02 05:23:57;;;;;;;4.60;3.15;;;;;;;10.39;97.83;100837.94;4956395;28;20118;-84
2022/01/02 05:26:23;;;;;;;10.43;3.72;;;;;;;10.36;98.83;100845.81;4952013;28;20051;-85
2022/01/02 05:28:50;;;;;;;6.03;2.88;;;;;;;10.33;98.73;100853.69;4975401;28;20134;-84
2022/01/02 05:31:16;;;;;;;8.25;3.45;;;;;;;10.32;99.52;100847.56;4942763;28;20046;-86
2022/01/02 05:33:43;;;;;;;3.97;2.85;;;;;;;10.27;99.53;100837.13;4956896;28;20054;-87
2022/01/02 05:36:09;;;;;;;6.47;3.13;;;;;;;10.26;99.83;100842.38;4960537;28;20057;-86
2022/01/02 05:38:36;;;;;;;5.28;3.28;;;;;;;10.24;99.93;100836.25;4957902;28;20428;-86
2022/01/02 05:41:02;;;;;;;6.22;3.25;;;;;;;10.22;100.00;100838.88;4960055;28;20046;-85
2022/01/02 05:43:29;;;;;;;4.15;3.05;;;;;;;10.21;100.00;100836.28;4968763;28;20047;-87
2022/01/02 05:45:56;;;;;;;8.48;3.13;;;;;;;10.21;100.00;100833.66;4957490;28;20461;-86
2022/01/02 05:48:22;;;;;;;6.30;3.20;;;;;;;10.21;100.00;100824.06;4952080;28;20518;-85
2022/01/02 05:50:49;;;;;;;5.40;3.40;;;;;;;10.24;100.00;100821.41;4954277;28;20193;-85
2022/01/02 05:53:16;;;;;;;7.00;3.63;;;;;;;10.27;100.00;100813.56;4938902;28;20398;-85
2022/01/02 05:55:42;;;;;;;6.60;3.00;;;;;;;10.29;100.00;100810.94;4953338;28;20166;-85
2022/01/02 05:58:09;;;;;;;3.88;2.42;;;;;;;10.30;100.00;100799.59;4964705;28;20281;-86
2022/01/02 06:00:36;;;;;;;5.40;3.00;;;;;;;10.32;99.86;100800.44;4960291;28;20053;-85
2022/01/02 06:03:02;;;;;;;4.25;2.67;;;;;;;10.35;100.00;100797.88;4964443;28;20038;-85
2022/01/02 06:05:29;;;;;;;3.22;2.17;;;;;;;10.36;99.80;100799.59;4958139;28;21896;-85
2022/01/02 06:07:55;;;;;;;5.05;3.10;;;;;;;10.37;100.00;100798.72;4959886;28;20047;-86
2022/01/02 06:10:22;;;;;;;3.47;2.78;;;;;;;10.38;100.00;100800.47;4972656;28;20101;-86
2022/01/02 06:12:49;;;;;;;5.78;3.03;;;;;;;10.39;100.00;100812.66;4974858;28;20039;-86
2022/01/02 06:15:15;;;;;;;6.45;3.10;;;;;;;10.40;100.00;100801.31;4978154;28;20043;-86
2022/01/02 06:17:42;;;;;;;6.55;3.25;;;;;;;10.43;100.00;100810.91;4958545;28;20058;-86
2022/01/02 06:20:09;;;;;;;3.05;2.60;;;;;;;10.41;100.00;100810.03;4961035;28;20138;-85
2022/01/02 06:22:35;;;;;;;5.25;3.20;;;;;;;10.41;100.00;100808.28;4959872;28;20141;-87
2022/01/02 06:25:02;;;;;;;2.53;2.33;;;;;;;10.44;100.00;100804.78;4943960;28;20692;-85
2022/01/02 06:27:28;;;;;;;7.07;2.55;;;;;;;10.46;100.00;100812.63;4956964;28;20053;-86
2022/01/02 06:29:55;;;;;;;4.10;2.40;;;;;;;10.48;100.00;100795.16;4958210;28;20134;-86
2022/01/02 06:32:21;;;;;;;3.42;2.20;;;;;;;10.49;100.00;100800.38;4970468;28;20061;-86
2022/01/02 06:34:48;;;;;;;3.55;2.70;;;;;;;10.48;100.00;100803.91;4943474;28;20107;-85
2022/01/02 06:37:15;;;;;;;5.85;2.75;;;;;;;10.49;100.00;100799.53;4945405;28;20050;-86
2022/01/02 06:39:41;;;;;;;5.53;3.33;;;;;;;10.50;100.00;100788.19;4969737;28;20056;-86
2022/01/02 06:42:08;;;;;;;3.78;2.72;;;;;;;10.51;100.00;100779.47;4943579;28;20074;-85
2022/01/02 06:44:35;;;;;;;3.67;2.10;;;;;;;10.52;100.00;100781.16;4941782;28;20568;-86
2022/01/02 06:47:02;;;;;;;2.78;2.03;;;;;;;10.52;100.00;100775.94;4941435;28;20063;-86
2022/01/02 06:49:28;;;;;;;3.00;2.17;;;;;;;10.51;100.00;100774.22;4968632;28;20455;-86
2022/01/02 06:51:55;;;;;;;5.55;1.95;;;;;;;10.53;100.00;100764.59;4943073;28;20082;-86
2022/01/02 06:54:21;;;;;;;3.72;2.17;;;;;;;10.56;100.00;100768.06;4955056;28;20058;-86
2022/01/02 06:56:48;;;;;;;2.38;1.80;;;;;;;10.56;100.00;100760.22;4956854;28;20066;-88
2022/01/02 06:59:14;;;;;;;5.75;2.63;;;;;;;10.56;100.00;100761.97;4938922;28;20045;-85
2022/01/02 07:01:41;;;;;;;3.60;2.25;;;;;;;10.56;100.00;100762.84;4951502;28;20054;-86
2022/01/02 07:04:07;;;;;;;3.13;2.10;;;;;;;10.57;100.00;100767.19;4939560;28;20134;-85
2022/01/02 07:06:34;;;;;;;5.32;2.40;;;;;;;10.59;100.00;100754.94;4957465;28;20050;-86
2022/01/02 07:09:01;;;;;;;7.05;2.00;;;;;;;10.61;100.00;100761.94;4942501;28;20705;-88
2022/01/02 07:11:27;;;;;;;9.48;3.15;;;;;;;10.65;100.00;100764.53;4938252;28;20039;-85
2022/01/02 07:13:54;;;;;;;4.90;2.20;;;;;;;10.69;100.00;100758.38;4959261;28;20058;-86
2022/01/02 07:16:20;;;;;;;5.93;1.92;;;;;;;10.72;100.00;100755.72;4962898;28;20048;-85
2022/01/02 07:18:47;;;;;;;7.68;2.05;;;;;;;10.74;100.00;100761.81;4957586;28;20391;-87
2022/01/02 07:21:14;;;;;;;9.40;2.33;;;;;;;10.78;100.00;100760.06;4976149;28;20050;-85
2022/01/02 07:23:40;;;;;;;3.70;2.22;;;;;;;10.78;100.00;100759.19;4992140;28;20339;-85
2022/01/02 07:26:08;;;;;;;3.45;2.08;;;;;;;10.76;100.00;100746.09;4972493;28;20052;-87
2022/01/02 07:28:35;;;;;;;4.75;2.42;;;;;;;10.74;100.00;100750.47;4962758;28;20101;-87
2022/01/02 07:31:02;;;;;;;6.10;2.45;;;;;;;10.73;100.00;100740.91;4979729;28;20381;-85
2022/01/02 07:33:31;;;;;;;6.03;2.08;;;;;;;10.70;100.00;100736.56;4981444;28;20046;-84
2022/01/02 07:35:58;;;;;;;7.65;2.13;;;;;;;10.72;100.00;100747.00;4974272;28;20058;-88
2022/01/02 07:38:24;;;;;;;3.95;2.30;;;;;;;10.74;100.00;100734.75;4969161;28;20039;-84
2022/01/02 07:40:52;;;;;;;5.22;1.98;;;;;;;10.85;100.00;100732.94;4971715;28;20051;-85
2022/01/02 07:43:19;;;;;;;3.65;2.10;;;;;;;10.90;100.00;100732.91;4971240;28;20049;-85
2022/01/02 07:45:46;;;;;;;11.95;2.40;;;;;;;10.92;100.00;100737.25;4985724;28;20042;-85
2022/01/02 07:48:13;;;;;;;8.40;2.50;;;;;;;10.94;100.00;100731.97;4974874;28;20453;-84
2022/01/02 07:50:39;;;;;;;6.43;2.25;;;;;;;10.95;100.00;100733.72;4971477;28;20078;-85
2022/01/02 07:53:06;;;;;;;5.47;2.63;;;;;;;10.96;100.00;100729.34;4983738;28;20393;-85
2022/01/02 07:55:33;;;;;;;5.63;2.08;;;;;;;10.96;100.00;100730.19;5000328;28;20042;-85
2022/01/02 07:58:03;;;;;;;8.38;2.95;;;;;;;10.99;100.00;100722.34;4971750;28;20113;-85
2022/01/02 08:00:29;;;;;;;8.68;2.35;;;;;;;10.96;100.00;100711.88;4986171;28;20053;-84
2022/01/02 08:02:56;;;;;;;4.65;2.22;;;;;;;10.93;100.00;100704.91;4986818;28;20137;-85
2022/01/02 08:05:23;;;;;;;5.70;1.90;;;;;;;10.92;100.00;100707.53;4966309;28;20053;-87
2022/01/02 08:07:49;;;;;;;7.20;2.30;;;;;;;10.92;100.00;100700.56;4970018;28;20070;-85
2022/01/02 08:10:16;;;;;;;4.95;2.67;;;;;;;10.87;100.00;100697.13;4969753;28;20053;-87
2022/01/02 08:12:45;;;;;;;7.13;3.30;;;;;;;10.86;100.00;100691.88;4970088;28;20046;-87
2022/01/02 08:15:12;;;;;;;4.38;2.60;;;;;;;10.82;100.00;100684.94;4962666;28;20205;-85
2022/01/02 08:17:39;;;;;;;5.80;2.30;;;;;;;10.80;100.00;100676.25;4984478;28;20050;-85
2022/01/02 08:20:07;;;;;;;7.38;2.30;;;;;;;10.78;100.00;100671.03;4989707;28;20144;-86
2022/01/02 08:22:34;;;;;;;10.95;2.47;;;;;;;10.79;100.00;100683.22;4973209;28;20058;-85
2022/01/02 08:25:02;;;;;;;12.05;5.03;;;;;;;10.80;100.00;100674.47;4988010;28;20054;-85
2022/01/02 08:27:32;;;;;;;5.68;2.35;;;;;;;10.82;100.00;100677.09;4986837;28;20121;-87
2022/01/02 08:29:59;;;;;;;4.93;2.47;;;;;;;10.81;100.00;100676.22;4989101;28;20129;-86
2022/01/02 08:32:26;;;;;;;4.57;2.13;;;;;;;10.82;100.00;100666.59;4970787;28;20043;-85
2022/01/02 08:34:53;;;;;;;9.05;2.53;;;;;;;10.80;100.00;100661.41;4968326;28;20050;-85
2022/01/02 08:37:19;;;;;;;10.73;3.42;;;;;;;10.81;100.00;100665.75;4970132;28;20125;-84
2022/01/02 08:39:46;;;;;;;4.78;2.88;;;;;;;10.82;100.00;100658.75;4975694;28;20333;-86
2022/01/02 08:42:14;;;;;;;3.88;2.38;;;;;;;10.82;100.00;100648.28;4981007;28;20047;-86
2022/01/02 08:44:43;;;;;;;7.72;2.72;;;;;;;10.80;100.00;100640.44;4961113;28;20046;-86
2022/01/02 08:47:11;;;;;;;4.15;2.97;;;;;;;10.81;100.00;100615.13;4962913;28;20073;-86
2022/01/02 08:49:39;;;;;;;7.30;2.97;;;;;;;10.83;100.00;100595.88;4964391;28;20039;-88
2022/01/02 08:52:06;;;;;;;5.82;3.75;;;;;;;10.83;100.00;100592.41;4980653;28;20046;-85
2022/01/02 08:54:32;;;;;;;7.15;2.47;;;;;;;10.84;100.00;100570.59;4966584;28;20148;-87
2022/01/02 08:56:59;;;;;;;9.95;5.65;;;;;;;10.84;100.00;100553.09;4960950;28;20061;-87
2022/01/02 08:59:28;;;;;;;6.55;3.38;;;;;;;10.84;100.00;100549.63;4978309;28;20053;-85
2022/01/02 09:01:55;;;;;;;4.60;2.55;;;;;;;10.83;100.00;100589.78;4958838;28;20058;-86
2022/01/02 09:04:22;;;;;;;8.20;3.47;;;;;;;10.84;100.00;100588.91;4967164;28;20434;-87
2022/01/02 09:06:49;;;;;;;2.95;2.60;;;;;;;10.83;100.00;100582.78;4977717;28;20046;-85
2022/01/02 09:09:16;;;;;;;5.10;3.20;;;;;;;10.84;100.00;100581.06;4978585;28;20043;-86
2022/01/02 09:11:42;;;;;;;9.32;2.60;;;;;;;10.84;100.00;100567.97;4975514;28;20064;-88
2022/01/02 09:14:09;;;;;;;7.38;2.53;;;;;;;10.84;100.00;100558.34;4962482;28;20046;-85
2022/01/02 09:16:36;;;;;;;2.75;2.35;;;;;;;10.85;100.00;100562.72;4967961;28;20066;-86
2022/01/02 09:19:02;;;;;;;6.32;2.90;;;;;;;10.87;100.00;100558.34;4957520;28;20070;-87
2022/01/02 09:21:29;;;;;;;3.78;2.83;;;;;;;10.89;100.00;100556.53;4959764;28;20047;-86
2022/01/02 09:23:55;;;;;;;5.35;3.30;;;;;;;10.90;100.00;100539.94;4958251;28;20053;-87
2022/01/02 09:26:22;;;;;;;9.15;4.60;;;;;;;10.91;100.00;100539.06;4961680;28;20502;-86
2022/01/02 09:28:48;;;;;;;6.07;3.90;;;;;;;10.93;100.00;100552.13;4943552;28;20050;-86
2022/01/02 09:31:15;;;;;;;6.90;3.50;;;;;;;10.93;100.00;100541.66;4960651;28;20129;-86
2022/01/02 09:33:41;;;;;;;10.18;4.25;;;;;;;10.93;100.00;100531.19;4958431;28;20070;-85
2022/01/02 09:36:10;;;;;;;7.03;2.90;;;;;;;10.94;100.00;100525.06;4959497;28;20121;-85
2022/01/02 09:38:37;;;;;;;4.88;3.38;;;;;;;10.95;100.00;100529.44;4959516;28;20350;-85
2022/01/02 09:41:06;;;;;;;7.68;3.90;;;;;;;10.95;100.00;100512.84;4956402;28;20137;-88
2022/01/02 09:43:33;;;;;;;5.70;4.50;;;;;;;10.95;100.00;100512.84;4944872;28;20560;-86
2022/01/02 09:46:02;;;;;;;8.63;4.68;;;;;;;10.94;100.00;100509.34;4955582;28;20130;-87
2022/01/02 09:48:32;;;;;;;6.55;4.15;;;;;;;10.94;100.00;100498.88;4960512;28;21100;-86
2022/01/02 09:50:59;;;;;;;5.70;3.90;;;;;;;10.93;100.00;100502.38;4955470;28;20038;-86
2022/01/02 09:53:25;;;;;;;6.88;4.07;;;;;;;10.91;100.00;100493.66;4956554;28;20480;-85
2022/01/02 09:55:54;;;;;;;7.35;4.20;;;;;;;10.89;100.00;100477.13;4939798;28;20549;-86
2022/01/02 09:58:20;;;;;;;6.63;4.05;;;;;;;10.88;100.00;100468.38;4957462;28;20587;-87
2022/01/02 10:00:48;;;;;;;4.78;2.90;;;;;;;10.86;100.00;100462.31;4935609;28;20047;-85
2022/01/02 10:03:16;;;;;;;6.07;3.60;;;;;;;10.87;100.00;100455.31;4933182;28;20047;-85
2022/01/02 10:06:00;;;;;;;8.75;4.43;;;;;;;10.87;100.00;100455.31;4953134;28;21416;-85
2022/01/02 10:08:33;;;;;;;7.40;4.30;;;;;;;10.87;100.00;100443.09;4953905;28;20047;-86
2022/01/02 10:11:09;;;;;;;7.47;3.85;;;;;;;10.86;100.00;100441.38;4941945;28;20417;-86
2022/01/02 10:13:37;;;;;;;9.18;6.10;;;;;;;10.87;100.00;100450.06;4960772;28;20061;-87
2022/01/02 10:16:03;;;;;;;5.30;4.18;;;;;;;10.84;100.00;100450.13;4958657;28;20047;-84
2022/01/02 10:18:31;;;;;;;6.75;4.65;;;;;;;10.84;100.00;100450.13;4973536;28;20051;-85
2022/01/02 10:21:01;;;;;;;6.05;4.53;;;;;;;10.86;100.00;100430.00;4958315;28;20075;-85
2022/01/02 10:23:28;;;;;;;4.57;4.03;;;;;;;10.85;100.00;100418.69;4956683;28;20415;-84
2022/01/02 10:25:59;;;;;;;6.05;3.88;;;;;;;10.85;100.00;100416.06;4943039;28;20410;-85
2022/01/02 10:28:34;;;;;;;6.57;4.10;;;;;;;10.85;100.00;100400.34;4959411;28;20062;-86
2022/01/02 10:31:11;;;;;;;8.05;4.72;;;;;;;10.90;100.00;100392.44;4965955;28;20056;-85
2022/01/02 10:33:55;;;;;;;9.63;5.10;;;;;;;10.93;99.16;100377.53;4978756;28;20711;-87
2022/01/02 10:36:33;;;;;;;7.68;4.00;;;;;;;10.97;98.39;100367.88;4977495;28;20057;-85
2022/01/02 10:39:14;;;;;;;10.60;4.60;;;;;;;11.05;98.40;100363.38;4979258;28;20535;-86
2022/01/02 10:41:45;;;;;;;7.25;4.30;;;;;;;11.10;97.63;100360.69;4960501;28;20144;-86
2022/01/02 10:44:34;;;;;;;7.88;3.88;;;;;;;11.15;97.09;100344.91;4981393;28;20057;-87
2022/01/02 10:47:26;;;;;;;8.27;3.83;;;;;;;11.18;96.83;100343.09;4963287;28;20058;-85
2022/01/02 10:50:03;;;;;;;5.97;3.55;;;;;;;11.23;95.77;100343.88;4979713;28;20047;-86
2022/01/02 10:52:35;;;;;;;5.53;3.65;;;;;;;11.25;96.01;100346.47;4979007;28;20042;-84
2022/01/02 10:55:21;;;;;;;8.20;3.40;;;;;;;11.29;95.67;100331.56;4963224;28;20128;-87
2022/01/02 10:57:52;;;;;;;7.70;3.53;;;;;;;11.39;94.52;100335.75;4953771;28;20046;-85
2022/01/02 11:00:25;;;;;;;8.25;3.90;;;;;;;11.48;94.44;100319.88;4962315;28;20478;-86
2022/01/02 11:02:52;;;;;;;7.10;3.97;;;;;;;11.59;93.47;100320.53;4957287;28;20696;-84
2022/01/02 11:05:22;;;;;;;5.53;3.42;;;;;;;11.78;93.78;100329.81;4958176;28;20061;-86
2022/01/02 11:07:54;;;;;;;5.57;3.35;;;;;;;11.89;90.45;100318.22;4959871;28;20046;-86
2022/01/02 11:10:24;;;;;;;8.33;2.60;;;;;;;12.03;90.53;100309.25;4958734;28;20042;-85
2022/01/02 11:12:53;;;;;;;10.15;3.28;;;;;;;12.19;89.11;100287.03;4974577;28;20124;-89
2022/01/02 11:15:28;;;;;;;7.13;3.08;;;;;;;12.33;85.20;100251.75;4971897;28;20137;-85
2022/01/02 11:17:55;;;;;;;5.22;2.90;;;;;;;12.47;83.26;100288.19;4922974;29;20056;-85
2022/01/02 11:20:32;;;;;;;5.20;2.40;;;;;;;12.53;83.26;100285.44;4930699;28;20443;-85
2022/01/02 11:23:24;;;;;;;5.88;2.78;;;;;;;12.57;82.30;100279.22;4920614;29;20177;-87
2022/01/02 11:26:11;;;;;;;3.22;2.15;;;;;;;12.57;81.90;100263.47;4919919;29;20540;-87
2022/01/02 11:28:47;;;;;;;5.13;2.67;;;;;;;12.55;80.76;100252.13;4938764;28;20043;-86
2022/01/02 11:31:39;;;;;;;7.97;2.88;;;;;;;12.53;81.23;100265.28;4946674;28;20046;-86
2022/01/02 11:34:44;;;;;;;6.82;3.17;;;;;;;12.51;80.47;100272.31;4930174;28;20043;-85